sensor_id;sensor_type;location;lat;lon;timestamp;P1;durP1;ratioP1;P2;durP2;ratioP2
51292;SDS011;37377;45.186;9.778;2024-02-26T09:44:21;51.9;;;43.2;;
51292;SDS011;37377;45.186;9.778;2024-02-26T13:57:00;4.1;;;2.2;;
51292;SDS011;37377;45.186;9.778;2024-02-26T13:58:02;4.1;;;2.2;;
51292;SDS011;37377;45.186;9.778;2024-02-26T13:59:00;4.1;;;2.2;;
51292;SDS011;37377;45.186;9.778;2024-02-26T14:00:00;4.4;;;2.6;;
51292;SDS011;37377;45.186;9.778;2024-02-26T14:01:03;4.4;;;2.6;;
51292;SDS011;37377;45.186;9.778;2024-02-26T14:02:00;4.4;;;2.6;;
51292;SDS011;37377;45.186;9.778;2024-02-26T14:03:01;5.0;;;2.8;;
51292;SDS011;37377;45.186;9.778;2024-02-26T14:04:02;5.0;;;2.8;;
51292;SDS011;37377;45.186;9.778;2024-02-26T14:05:03;5.0;;;2.8;;
51292;SDS011;37377;45.186;9.778;2024-02-26T14:06:01;4.9;;;3.2;;
51292;SDS011;37377;45.186;9.778;2024-02-26T14:07:01;4.9;;;3.2;;
51292;SDS011;37377;45.186;9.778;2024-02-26T14:08:01;4.9;;;3.2;;
51292;SDS011;37377;45.186;9.778;2024-02-26T14:09:01;6.7;;;3.3;;
51292;SDS011;37377;45.186;9.778;2024-02-26T14:10:00;6.7;;;3.3;;
51292;SDS011;37377;45.186;9.778;2024-02-26T14:11:00;6.7;;;3.3;;
51292;SDS011;37377;45.186;9.778;2024-02-26T14:12:01;5.8;;;3.3;;
51292;SDS011;37377;45.186;9.778;2024-02-26T14:13:00;5.8;;;3.3;;
51292;SDS011;37377;45.186;9.778;2024-02-26T14:14:00;5.8;;;3.3;;
51292;SDS011;37377;45.186;9.778;2024-02-26T14:15:04;3.7;;;2.5;;
51292;SDS011;37377;45.186;9.778;2024-02-26T14:16:00;3.7;;;2.5;;
51292;SDS011;37377;45.186;9.778;2024-02-26T14:17:00;3.7;;;2.5;;
51292;SDS011;37377;45.186;9.778;2024-02-26T14:18:02;4.2;;;2.4;;
51292;SDS011;37377;45.186;9.778;2024-02-26T14:19:00;4.2;;;2.4;;
51292;SDS011;37377;45.186;9.778;2024-02-26T14:20:00;4.2;;;2.4;;
51292;SDS011;37377;45.186;9.778;2024-02-26T14:21:00;3.5;;;2.3;;
51292;SDS011;37377;45.186;9.778;2024-02-26T14:22:00;3.5;;;2.3;;
51292;SDS011;37377;45.186;9.778;2024-02-26T14:23:00;3.5;;;2.3;;
51292;SDS011;37377;45.186;9.778;2024-02-26T14:24:00;4.5;;;2.5;;
51292;SDS011;37377;45.186;9.778;2024-02-26T14:25:00;4.5;;;2.5;;
51292;SDS011;37377;45.186;9.778;2024-02-26T14:26:01;4.5;;;2.5;;
51292;SDS011;37377;45.186;9.778;2024-02-26T14:27:00;7.0;;;2.5;;
51292;SDS011;37377;45.186;9.778;2024-02-26T14:28:00;7.0;;;2.5;;
51292;SDS011;37377;45.186;9.778;2024-02-26T14:29:00;7.0;;;2.5;;
51292;SDS011;37377;45.186;9.778;2024-02-26T14:30:00;4.4;;;2.7;;
51292;SDS011;37377;45.186;9.778;2024-02-26T14:31:00;4.4;;;2.7;;
51292;SDS011;37377;45.186;9.778;2024-02-26T14:32:00;4.4;;;2.7;;
51292;SDS011;37377;45.186;9.778;2024-02-26T14:33:00;3.6;;;2.7;;
51292;SDS011;37377;45.186;9.778;2024-02-26T14:34:00;3.6;;;2.7;;
51292;SDS011;37377;45.186;9.778;2024-02-26T14:35:00;3.6;;;2.7;;
51292;SDS011;37377;45.186;9.778;2024-02-26T14:36:00;5.3;;;2.8;;
51292;SDS011;37377;45.186;9.778;2024-02-26T14:37:00;5.3;;;2.8;;
51292;SDS011;37377;45.186;9.778;2024-02-26T14:38:01;5.3;;;2.8;;
51292;SDS011;37377;45.186;9.778;2024-02-26T14:39:00;3.7;;;3.1;;
51292;SDS011;37377;45.186;9.778;2024-02-26T14:40:01;3.7;;;3.1;;
51292;SDS011;37377;45.186;9.778;2024-02-26T14:41:00;3.7;;;3.1;;
51292;SDS011;37377;45.186;9.778;2024-02-26T14:42:01;4.4;;;3.2;;
51292;SDS011;37377;45.186;9.778;2024-02-26T14:43:00;4.4;;;3.2;;
51292;SDS011;37377;45.186;9.778;2024-02-26T14:44:00;4.4;;;3.2;;
51292;SDS011;37377;45.186;9.778;2024-02-26T14:45:00;6.0;;;3.4;;
51292;SDS011;37377;45.186;9.778;2024-02-26T14:46:00;6.0;;;3.4;;
51292;SDS011;37377;45.186;9.778;2024-02-26T14:47:00;6.0;;;3.4;;
51292;SDS011;37377;45.186;9.778;2024-02-26T14:48:00;5.9;;;4.3;;
51292;SDS011;37377;45.186;9.778;2024-02-26T14:49:00;5.9;;;4.3;;
51292;SDS011;37377;45.186;9.778;2024-02-26T14:50:00;5.9;;;4.3;;
51292;SDS011;37377;45.186;9.778;2024-02-26T14:51:00;7.7;;;4.7;;
51292;SDS011;37377;45.186;9.778;2024-02-26T14:52:00;7.7;;;4.7;;
51292;SDS011;37377;45.186;9.778;2024-02-26T14:53:02;7.7;;;4.7;;
51292;SDS011;37377;45.186;9.778;2024-02-26T14:54:02;10.4;;;4.9;;
51292;SDS011;37377;45.186;9.778;2024-02-26T14:55:00;10.4;;;4.9;;
51292;SDS011;37377;45.186;9.778;2024-02-26T14:56:00;10.4;;;4.9;;
51292;SDS011;37377;45.186;9.778;2024-02-26T14:57:00;6.9;;;5.3;;
51292;SDS011;37377;45.186;9.778;2024-02-26T14:58:00;6.9;;;5.3;;
51292;SDS011;37377;45.186;9.778;2024-02-26T14:59:00;6.9;;;5.3;;
51292;SDS011;37377;45.186;9.778;2024-02-26T15:02:00;5.9;;;5.4;;
51292;SDS011;37377;45.186;9.778;2024-02-26T15:03:00;9.3;;;6.6;;
51292;SDS011;37377;45.186;9.778;2024-02-26T15:04:01;9.3;;;6.6;;
51292;SDS011;37377;45.186;9.778;2024-02-26T15:05:00;9.3;;;6.6;;
51292;SDS011;37377;45.186;9.778;2024-02-26T15:06:00;6.6;;;5.8;;
51292;SDS011;37377;45.186;9.778;2024-02-26T15:07:00;6.6;;;5.8;;
51292;SDS011;37377;45.186;9.778;2024-02-26T15:08:00;6.6;;;5.8;;
51292;SDS011;37377;45.186;9.778;2024-02-26T15:09:00;7.1;;;6.4;;
51292;SDS011;37377;45.186;9.778;2024-02-26T15:10:00;7.1;;;6.4;;
51292;SDS011;37377;45.186;9.778;2024-02-26T15:11:01;7.1;;;6.4;;
51292;SDS011;37377;45.186;9.778;2024-02-26T15:12:00;10.0;;;7.9;;
51292;SDS011;37377;45.186;9.778;2024-02-26T15:13:00;10.0;;;7.9;;
51292;SDS011;37377;45.186;9.778;2024-02-26T15:14:00;10.0;;;7.9;;
51292;SDS011;37377;45.186;9.778;2024-02-26T15:15:00;10.6;;;7.6;;
51292;SDS011;37377;45.186;9.778;2024-02-26T15:16:00;10.6;;;7.6;;
51292;SDS011;37377;45.186;9.778;2024-02-26T15:17:00;10.6;;;7.6;;
51292;SDS011;37377;45.186;9.778;2024-02-26T15:18:01;9.6;;;7.9;;
51292;SDS011;37377;45.186;9.778;2024-02-26T15:19:00;9.6;;;7.9;;
51292;SDS011;37377;45.186;9.778;2024-02-26T15:20:01;9.6;;;7.9;;
51292;SDS011;37377;45.186;9.778;2024-02-26T15:21:03;10.6;;;8.7;;
51292;SDS011;37377;45.186;9.778;2024-02-26T15:22:00;10.6;;;8.7;;
51292;SDS011;37377;45.186;9.778;2024-02-26T15:23:00;10.6;;;8.7;;
51292;SDS011;37377;45.186;9.778;2024-02-26T15:24:08;11.3;;;10.1;;
51292;SDS011;37377;45.186;9.778;2024-02-26T15:25:00;11.3;;;10.1;;
51292;SDS011;37377;45.186;9.778;2024-02-26T15:26:00;11.3;;;10.1;;
51292;SDS011;37377;45.186;9.778;2024-02-26T15:27:00;12.7;;;10.2;;
51292;SDS011;37377;45.186;9.778;2024-02-26T15:28:00;12.7;;;10.2;;
51292;SDS011;37377;45.186;9.778;2024-02-26T15:29:00;12.7;;;10.2;;
51292;SDS011;37377;45.186;9.778;2024-02-26T15:30:02;9.6;;;8.7;;
51292;SDS011;37377;45.186;9.778;2024-02-26T15:31:00;9.6;;;8.7;;
51292;SDS011;37377;45.186;9.778;2024-02-26T15:32:00;9.6;;;8.7;;
51292;SDS011;37377;45.186;9.778;2024-02-26T15:33:00;10.7;;;9.6;;
51292;SDS011;37377;45.186;9.778;2024-02-26T15:34:01;10.7;;;9.6;;
51292;SDS011;37377;45.186;9.778;2024-02-26T15:35:00;10.7;;;9.6;;
51292;SDS011;37377;45.186;9.778;2024-02-26T15:36:00;15.6;;;10.5;;
51292;SDS011;37377;45.186;9.778;2024-02-26T15:37:00;15.6;;;10.5;;
51292;SDS011;37377;45.186;9.778;2024-02-26T15:38:01;15.6;;;10.5;;
51292;SDS011;37377;45.186;9.778;2024-02-26T15:39:00;14.5;;;10.7;;
51292;SDS011;37377;45.186;9.778;2024-02-26T15:40:00;14.5;;;10.7;;
51292;SDS011;37377;45.186;9.778;2024-02-26T15:41:00;14.5;;;10.7;;
51292;SDS011;37377;45.186;9.778;2024-02-26T15:42:02;11.6;;;10.4;;
51292;SDS011;37377;45.186;9.778;2024-02-26T15:43:00;11.6;;;10.4;;
51292;SDS011;37377;45.186;9.778;2024-02-26T15:44:00;11.6;;;10.4;;
51292;SDS011;37377;45.186;9.778;2024-02-26T15:45:00;12.7;;;10.9;;
51292;SDS011;37377;45.186;9.778;2024-02-26T15:46:00;12.7;;;10.9;;
51292;SDS011;37377;45.186;9.778;2024-02-26T15:47:01;12.7;;;10.9;;
51292;SDS011;37377;45.186;9.778;2024-02-26T15:48:00;14.7;;;12.7;;
51292;SDS011;37377;45.186;9.778;2024-02-26T15:49:01;14.7;;;12.7;;
51292;SDS011;37377;45.186;9.778;2024-02-26T15:50:01;14.7;;;12.7;;
51292;SDS011;37377;45.186;9.778;2024-02-26T15:51:00;20.1;;;13.4;;
51292;SDS011;37377;45.186;9.778;2024-02-26T15:52:00;20.1;;;13.4;;
51292;SDS011;37377;45.186;9.778;2024-02-26T15:53:01;20.1;;;13.4;;
51292;SDS011;37377;45.186;9.778;2024-02-26T15:54:01;16.3;;;14.5;;
51292;SDS011;37377;45.186;9.778;2024-02-26T15:55:00;16.3;;;14.5;;
51292;SDS011;37377;45.186;9.778;2024-02-26T15:56:00;16.3;;;14.5;;
51292;SDS011;37377;45.186;9.778;2024-02-26T15:57:01;16.5;;;12.8;;
51292;SDS011;37377;45.186;9.778;2024-02-26T15:58:00;16.5;;;12.8;;
51292;SDS011;37377;45.186;9.778;2024-02-26T15:59:00;16.5;;;12.8;;
51292;SDS011;37377;45.186;9.778;2024-02-26T16:00:01;13.1;;;11.5;;
51292;SDS011;37377;45.186;9.778;2024-02-26T16:02:00;13.1;;;11.5;;
51292;SDS011;37377;45.186;9.778;2024-02-26T16:03:03;14.5;;;12.2;;
51292;SDS011;37377;45.186;9.778;2024-02-26T16:04:00;14.5;;;12.2;;
51292;SDS011;37377;45.186;9.778;2024-02-26T16:05:00;14.5;;;12.2;;
51292;SDS011;37377;45.186;9.778;2024-02-26T16:06:00;15.7;;;13.3;;
51292;SDS011;37377;45.186;9.778;2024-02-26T16:07:04;15.7;;;13.3;;
51292;SDS011;37377;45.186;9.778;2024-02-26T16:08:06;15.7;;;13.3;;
51292;SDS011;37377;45.186;9.778;2024-02-26T16:09:01;15.1;;;13.2;;
51292;SDS011;37377;45.186;9.778;2024-02-26T16:10:03;15.1;;;13.2;;
51292;SDS011;37377;45.186;9.778;2024-02-26T16:11:00;15.1;;;13.2;;
51292;SDS011;37377;45.186;9.778;2024-02-26T16:12:08;12.8;;;11.5;;
51292;SDS011;37377;45.186;9.778;2024-02-26T16:13:01;12.8;;;11.5;;
51292;SDS011;37377;45.186;9.778;2024-02-26T16:15:00;12.6;;;11.3;;
51292;SDS011;37377;45.186;9.778;2024-02-26T16:16:05;12.6;;;11.3;;
51292;SDS011;37377;45.186;9.778;2024-02-26T16:17:10;12.6;;;11.3;;
51292;SDS011;37377;45.186;9.778;2024-02-26T16:18:01;11.8;;;10.6;;
51292;SDS011;37377;45.186;9.778;2024-02-26T16:19:12;11.8;;;10.6;;
51292;SDS011;37377;45.186;9.778;2024-02-26T16:20:03;11.8;;;10.6;;
51292;SDS011;37377;45.186;9.778;2024-02-26T16:21:01;15.8;;;12.3;;
51292;SDS011;37377;45.186;9.778;2024-02-26T16:22:00;15.8;;;12.3;;
51292;SDS011;37377;45.186;9.778;2024-02-26T16:23:04;15.8;;;12.3;;
51292;SDS011;37377;45.186;9.778;2024-02-26T16:24:00;13.7;;;12.3;;
51292;SDS011;37377;45.186;9.778;2024-02-26T16:25:00;13.7;;;12.3;;
51292;SDS011;37377;45.186;9.778;2024-02-26T16:26:00;13.7;;;12.3;;
51292;SDS011;37377;45.186;9.778;2024-02-26T16:27:00;14.9;;;12.8;;
51292;SDS011;37377;45.186;9.778;2024-02-26T16:28:00;14.9;;;12.8;;
51292;SDS011;37377;45.186;9.778;2024-02-26T16:29:00;14.9;;;12.8;;
51292;SDS011;37377;45.186;9.778;2024-02-26T16:30:00;18.1;;;12.7;;
51292;SDS011;37377;45.186;9.778;2024-02-26T16:31:01;18.1;;;12.7;;
51292;SDS011;37377;45.186;9.778;2024-02-26T16:32:00;18.1;;;12.7;;
51292;SDS011;37377;45.186;9.778;2024-02-26T16:33:00;14.3;;;11.5;;
51292;SDS011;37377;45.186;9.778;2024-02-26T16:34:00;14.3;;;11.5;;
51292;SDS011;37377;45.186;9.778;2024-02-26T16:35:01;14.3;;;11.5;;
51292;SDS011;37377;45.186;9.778;2024-02-26T16:36:01;14.0;;;11.6;;
51292;SDS011;37377;45.186;9.778;2024-02-26T16:37:08;14.0;;;11.6;;
51292;SDS011;37377;45.186;9.778;2024-02-26T16:38:00;14.0;;;11.6;;
51292;SDS011;37377;45.186;9.778;2024-02-26T16:39:00;15.3;;;12.2;;
51292;SDS011;37377;45.186;9.778;2024-02-26T16:40:02;15.3;;;12.2;;
51292;SDS011;37377;45.186;9.778;2024-02-26T16:41:01;15.3;;;12.2;;
51292;SDS011;37377;45.186;9.778;2024-02-26T16:42:00;15.8;;;12.9;;
51292;SDS011;37377;45.186;9.778;2024-02-26T16:43:06;15.8;;;12.9;;
51292;SDS011;37377;45.186;9.778;2024-02-26T16:44:00;15.8;;;12.9;;
51292;SDS011;37377;45.186;9.778;2024-02-26T16:45:03;14.2;;;11.9;;
51292;SDS011;37377;45.186;9.778;2024-02-26T16:46:01;14.2;;;11.9;;
51292;SDS011;37377;45.186;9.778;2024-02-26T16:47:01;14.2;;;11.9;;
51292;SDS011;37377;45.186;9.778;2024-02-26T16:48:00;13.1;;;11.3;;
51292;SDS011;37377;45.186;9.778;2024-02-26T16:49:04;13.1;;;11.3;;
51292;SDS011;37377;45.186;9.778;2024-02-26T16:50:02;13.1;;;11.3;;
51292;SDS011;37377;45.186;9.778;2024-02-26T16:51:02;11.7;;;10.5;;
51292;SDS011;37377;45.186;9.778;2024-02-26T16:52:00;11.7;;;10.5;;
51292;SDS011;37377;45.186;9.778;2024-02-26T16:53:00;11.7;;;10.5;;
51292;SDS011;37377;45.186;9.778;2024-02-26T16:54:00;11.3;;;10.0;;
51292;SDS011;37377;45.186;9.778;2024-02-26T16:55:04;11.3;;;10.0;;
51292;SDS011;37377;45.186;9.778;2024-02-26T16:56:02;11.3;;;10.0;;
51292;SDS011;37377;45.186;9.778;2024-02-26T16:57:02;13.4;;;10.3;;
51292;SDS011;37377;45.186;9.778;2024-02-26T16:58:00;13.4;;;10.3;;
51292;SDS011;37377;45.186;9.778;2024-02-26T16:59:00;13.4;;;10.3;;
51292;SDS011;37377;45.186;9.778;2024-02-26T17:00:00;12.7;;;10.4;;
51292;SDS011;37377;45.186;9.778;2024-02-26T17:01:04;12.7;;;10.4;;
51292;SDS011;37377;45.186;9.778;2024-02-26T17:02:00;12.7;;;10.4;;
51292;SDS011;37377;45.186;9.778;2024-02-26T17:03:00;12.7;;;10.4;;
51292;SDS011;37377;45.186;9.778;2024-02-26T17:11:00;11.1;;;9.8;;
51292;SDS011;37377;45.186;9.778;2024-02-26T17:12:00;16.1;;;9.7;;
51292;SDS011;37377;45.186;9.778;2024-02-26T17:13:00;16.1;;;9.7;;
51292;SDS011;37377;45.186;9.778;2024-02-26T17:14:00;16.1;;;9.7;;
51292;SDS011;37377;45.186;9.778;2024-02-26T17:15:00;13.6;;;9.4;;
51292;SDS011;37377;45.186;9.778;2024-02-26T17:16:00;13.6;;;9.4;;
51292;SDS011;37377;45.186;9.778;2024-02-26T17:17:00;13.6;;;9.4;;
51292;SDS011;37377;45.186;9.778;2024-02-26T17:18:00;9.7;;;8.6;;
51292;SDS011;37377;45.186;9.778;2024-02-26T17:19:00;9.7;;;8.6;;
51292;SDS011;37377;45.186;9.778;2024-02-26T17:20:00;9.7;;;8.6;;
51292;SDS011;37377;45.186;9.778;2024-02-26T17:21:00;9.4;;;8.4;;
51292;SDS011;37377;45.186;9.778;2024-02-26T17:22:00;9.4;;;8.4;;
51292;SDS011;37377;45.186;9.778;2024-02-26T17:23:00;9.4;;;8.4;;
51292;SDS011;37377;45.186;9.778;2024-02-26T17:24:01;11.2;;;9.1;;
51292;SDS011;37377;45.186;9.778;2024-02-26T17:25:00;11.2;;;9.1;;
51292;SDS011;37377;45.186;9.778;2024-02-26T17:26:00;11.2;;;9.1;;
51292;SDS011;37377;45.186;9.778;2024-02-26T17:27:00;12.1;;;8.8;;
51292;SDS011;37377;45.186;9.778;2024-02-26T17:28:00;12.1;;;8.8;;
51292;SDS011;37377;45.186;9.778;2024-02-26T17:29:02;12.1;;;8.8;;
51292;SDS011;37377;45.186;9.778;2024-02-26T17:30:00;10.5;;;8.3;;
51292;SDS011;37377;45.186;9.778;2024-02-26T17:31:00;10.5;;;8.3;;
51292;SDS011;37377;45.186;9.778;2024-02-26T17:32:01;10.5;;;8.3;;
51292;SDS011;37377;45.186;9.778;2024-02-26T17:33:01;9.5;;;8.4;;
51292;SDS011;37377;45.186;9.778;2024-02-26T17:34:01;9.5;;;8.4;;
51292;SDS011;37377;45.186;9.778;2024-02-26T17:35:00;9.5;;;8.4;;
51292;SDS011;37377;45.186;9.778;2024-02-26T17:36:00;9.9;;;8.2;;
51292;SDS011;37377;45.186;9.778;2024-02-26T17:37:00;9.9;;;8.2;;
51292;SDS011;37377;45.186;9.778;2024-02-26T17:38:01;9.9;;;8.2;;
51292;SDS011;37377;45.186;9.778;2024-02-26T17:39:00;9.3;;;7.5;;
51292;SDS011;37377;45.186;9.778;2024-02-26T17:40:00;9.3;;;7.5;;
51292;SDS011;37377;45.186;9.778;2024-02-26T17:41:01;9.3;;;7.5;;
51292;SDS011;37377;45.186;9.778;2024-02-26T17:42:00;13.4;;;8.2;;
51292;SDS011;37377;45.186;9.778;2024-02-26T17:43:00;13.4;;;8.2;;
51292;SDS011;37377;45.186;9.778;2024-02-26T17:44:00;13.4;;;8.2;;
51292;SDS011;37377;45.186;9.778;2024-02-26T17:45:01;10.3;;;8.2;;
51292;SDS011;37377;45.186;9.778;2024-02-26T17:46:00;10.3;;;8.2;;
51292;SDS011;37377;45.186;9.778;2024-02-26T17:47:00;10.3;;;8.2;;
51292;SDS011;37377;45.186;9.778;2024-02-26T17:48:00;10.1;;;9.1;;
51292;SDS011;37377;45.186;9.778;2024-02-26T17:49:00;10.1;;;9.1;;
51292;SDS011;37377;45.186;9.778;2024-02-26T17:50:00;10.1;;;9.1;;
51292;SDS011;37377;45.186;9.778;2024-02-26T17:51:00;7.5;;;6.7;;
51292;SDS011;37377;45.186;9.778;2024-02-26T17:52:01;7.5;;;6.7;;
51292;SDS011;37377;45.186;9.778;2024-02-26T17:53:01;7.5;;;6.7;;
51292;SDS011;37377;45.186;9.778;2024-02-26T17:54:00;7.9;;;6.0;;
51292;SDS011;37377;45.186;9.778;2024-02-26T17:55:00;7.9;;;6.0;;
51292;SDS011;37377;45.186;9.778;2024-02-26T17:56:06;7.9;;;6.0;;
51292;SDS011;37377;45.186;9.778;2024-02-26T17:57:00;5.0;;;4.4;;
51292;SDS011;37377;45.186;9.778;2024-02-26T17:58:00;5.0;;;4.4;;
51292;SDS011;37377;45.186;9.778;2024-02-26T17:59:00;5.0;;;4.4;;
51292;SDS011;37377;45.186;9.778;2024-02-26T18:00:00;4.8;;;4.2;;
51292;SDS011;37377;45.186;9.778;2024-02-26T18:01:00;4.8;;;4.2;;
51292;SDS011;37377;45.186;9.778;2024-02-26T18:02:00;4.8;;;4.2;;
51292;SDS011;37377;45.186;9.778;2024-02-26T18:03:00;5.0;;;4.4;;
51292;SDS011;37377;45.186;9.778;2024-02-26T18:04:00;5.0;;;4.4;;
51292;SDS011;37377;45.186;9.778;2024-02-26T18:05:00;5.0;;;4.4;;
51292;SDS011;37377;45.186;9.778;2024-02-26T18:06:01;4.2;;;3.7;;
51292;SDS011;37377;45.186;9.778;2024-02-26T18:07:00;4.2;;;3.7;;
51292;SDS011;37377;45.186;9.778;2024-02-26T18:08:00;4.2;;;3.7;;
51292;SDS011;37377;45.186;9.778;2024-02-26T18:09:00;5.3;;;3.8;;
51292;SDS011;37377;45.186;9.778;2024-02-26T18:10:01;5.3;;;3.8;;
51292;SDS011;37377;45.186;9.778;2024-02-26T18:11:00;5.3;;;3.8;;
51292;SDS011;37377;45.186;9.778;2024-02-26T18:12:00;5.1;;;3.6;;
51292;SDS011;37377;45.186;9.778;2024-02-26T18:13:00;5.1;;;3.6;;
51292;SDS011;37377;45.186;9.778;2024-02-26T18:14:00;5.1;;;3.6;;
51292;SDS011;37377;45.186;9.778;2024-02-26T18:15:00;6.3;;;5.1;;
51292;SDS011;37377;45.186;9.778;2024-02-26T18:16:00;6.3;;;5.1;;
51292;SDS011;37377;45.186;9.778;2024-02-26T18:17:00;6.3;;;5.1;;
51292;SDS011;37377;45.186;9.778;2024-02-26T18:18:01;6.2;;;5.2;;
51292;SDS011;37377;45.186;9.778;2024-02-26T18:19:00;6.2;;;5.2;;
51292;SDS011;37377;45.186;9.778;2024-02-26T18:20:03;6.2;;;5.2;;
51292;SDS011;37377;45.186;9.778;2024-02-26T18:21:01;4.6;;;4.0;;
51292;SDS011;37377;45.186;9.778;2024-02-26T18:22:01;4.6;;;4.0;;
51292;SDS011;37377;45.186;9.778;2024-02-26T18:23:00;4.6;;;4.0;;
51292;SDS011;37377;45.186;9.778;2024-02-26T18:24:00;4.7;;;3.2;;
51292;SDS011;37377;45.186;9.778;2024-02-26T18:25:00;4.7;;;3.2;;
51292;SDS011;37377;45.186;9.778;2024-02-26T18:26:00;4.7;;;3.2;;
51292;SDS011;37377;45.186;9.778;2024-02-26T18:28:00;3.7;;;3.3;;
51292;SDS011;37377;45.186;9.778;2024-02-26T18:29:00;3.7;;;3.3;;
51292;SDS011;37377;45.186;9.778;2024-02-26T18:30:00;4.1;;;3.4;;
51292;SDS011;37377;45.186;9.778;2024-02-26T18:31:00;4.1;;;3.4;;
51292;SDS011;37377;45.186;9.778;2024-02-26T18:32:00;4.1;;;3.4;;
51292;SDS011;37377;45.186;9.778;2024-02-26T18:33:00;3.6;;;3.0;;
51292;SDS011;37377;45.186;9.778;2024-02-26T18:34:00;3.6;;;3.0;;
51292;SDS011;37377;45.186;9.778;2024-02-26T18:35:01;3.6;;;3.0;;
51292;SDS011;37377;45.186;9.778;2024-02-26T18:36:03;3.9;;;3.3;;
51292;SDS011;37377;45.186;9.778;2024-02-26T18:37:00;3.9;;;3.3;;
51292;SDS011;37377;45.186;9.778;2024-02-26T18:38:00;3.9;;;3.3;;
51292;SDS011;37377;45.186;9.778;2024-02-26T18:39:00;4.6;;;3.4;;
51292;SDS011;37377;45.186;9.778;2024-02-26T18:40:00;4.6;;;3.4;;
51292;SDS011;37377;45.186;9.778;2024-02-26T18:41:01;4.6;;;3.4;;
51292;SDS011;37377;45.186;9.778;2024-02-26T18:42:00;3.6;;;3.3;;
51292;SDS011;37377;45.186;9.778;2024-02-26T18:43:01;3.6;;;3.3;;
51292;SDS011;37377;45.186;9.778;2024-02-26T18:44:00;3.6;;;3.3;;
51292;SDS011;37377;45.186;9.778;2024-02-26T18:45:01;3.5;;;2.7;;
51292;SDS011;37377;45.186;9.778;2024-02-26T18:46:01;3.5;;;2.7;;
51292;SDS011;37377;45.186;9.778;2024-02-26T18:47:00;3.5;;;2.7;;
51292;SDS011;37377;45.186;9.778;2024-02-26T18:48:01;3.0;;;2.6;;
51292;SDS011;37377;45.186;9.778;2024-02-26T18:49:00;3.0;;;2.6;;
51292;SDS011;37377;45.186;9.778;2024-02-26T18:50:01;3.0;;;2.6;;
51292;SDS011;37377;45.186;9.778;2024-02-26T18:51:00;2.9;;;2.3;;
51292;SDS011;37377;45.186;9.778;2024-02-26T18:52:00;2.9;;;2.3;;
51292;SDS011;37377;45.186;9.778;2024-02-26T18:53:01;2.9;;;2.3;;
51292;SDS011;37377;45.186;9.778;2024-02-26T18:54:00;3.8;;;2.5;;
51292;SDS011;37377;45.186;9.778;2024-02-26T18:55:00;3.8;;;2.5;;
51292;SDS011;37377;45.186;9.778;2024-02-26T18:56:00;3.8;;;2.5;;
51292;SDS011;37377;45.186;9.778;2024-02-26T18:57:01;6.5;;;3.0;;
51292;SDS011;37377;45.186;9.778;2024-02-26T18:58:01;6.5;;;3.0;;
51292;SDS011;37377;45.186;9.778;2024-02-26T18:59:01;6.5;;;3.0;;
51292;SDS011;37377;45.186;9.778;2024-02-26T19:00:00;3.1;;;2.8;;
51292;SDS011;37377;45.186;9.778;2024-02-26T19:01:00;3.1;;;2.8;;
51292;SDS011;37377;45.186;9.778;2024-02-26T19:02:00;3.1;;;2.8;;
51292;SDS011;37377;45.186;9.778;2024-02-26T19:03:00;3.7;;;3.0;;
51292;SDS011;37377;45.186;9.778;2024-02-26T19:04:00;3.7;;;3.0;;
51292;SDS011;37377;45.186;9.778;2024-02-26T19:05:00;3.7;;;3.0;;
51292;SDS011;37377;45.186;9.778;2024-02-26T19:06:03;5.1;;;4.0;;
51292;SDS011;37377;45.186;9.778;2024-02-26T19:07:00;5.1;;;4.0;;
51292;SDS011;37377;45.186;9.778;2024-02-26T19:08:01;5.1;;;4.0;;
51292;SDS011;37377;45.186;9.778;2024-02-26T19:09:00;5.7;;;5.2;;
51292;SDS011;37377;45.186;9.778;2024-02-26T19:10:00;5.7;;;5.2;;
51292;SDS011;37377;45.186;9.778;2024-02-26T19:11:00;5.7;;;5.2;;
51292;SDS011;37377;45.186;9.778;2024-02-26T19:12:00;5.7;;;5.2;;
51292;SDS011;37377;45.186;9.778;2024-02-26T19:16:01;6.5;;;5.9;;
51292;SDS011;37377;45.186;9.778;2024-02-26T19:17:00;6.5;;;5.9;;
51292;SDS011;37377;45.186;9.778;2024-02-26T19:19:02;6.7;;;6.1;;
51292;SDS011;37377;45.186;9.778;2024-02-26T19:20:00;6.7;;;6.1;;
51292;SDS011;37377;45.186;9.778;2024-02-26T19:21:00;8.2;;;7.5;;
51292;SDS011;37377;45.186;9.778;2024-02-26T19:23:01;8.2;;;7.5;;
51292;SDS011;37377;45.186;9.778;2024-02-26T19:25:00;8.8;;;7.9;;
51292;SDS011;37377;45.186;9.778;2024-02-26T19:26:01;8.8;;;7.9;;
51292;SDS011;37377;45.186;9.778;2024-02-26T19:27:00;8.8;;;7.9;;
51292;SDS011;37377;45.186;9.778;2024-02-26T19:29:05;7.4;;;6.8;;
51292;SDS011;37377;45.186;9.778;2024-02-26T19:30:03;4.4;;;3.9;;
51292;SDS011;37377;45.186;9.778;2024-02-26T19:32:00;4.4;;;3.9;;
51292;SDS011;37377;45.186;9.778;2024-02-26T19:33:00;3.0;;;1.9;;
51292;SDS011;37377;45.186;9.778;2024-02-26T19:34:01;3.0;;;1.9;;
51292;SDS011;37377;45.186;9.778;2024-02-26T19:35:00;3.0;;;1.9;;
51292;SDS011;37377;45.186;9.778;2024-02-26T19:36:00;3.0;;;1.9;;
51292;SDS011;37377;45.186;9.778;2024-02-26T19:37:03;2.0;;;1.5;;
51292;SDS011;37377;45.186;9.778;2024-02-26T19:39:01;1.6;;;1.3;;
51292;SDS011;37377;45.186;9.778;2024-02-26T19:40:00;1.6;;;1.3;;
51292;SDS011;37377;45.186;9.778;2024-02-26T19:41:00;1.6;;;1.3;;
51292;SDS011;37377;45.186;9.778;2024-02-26T19:42:00;2.7;;;1.3;;
51292;SDS011;37377;45.186;9.778;2024-02-26T19:43:00;2.7;;;1.3;;
51292;SDS011;37377;45.186;9.778;2024-02-26T19:44:00;2.7;;;1.3;;
51292;SDS011;37377;45.186;9.778;2024-02-26T19:45:00;1.5;;;1.3;;
51292;SDS011;37377;45.186;9.778;2024-02-26T19:46:00;1.5;;;1.3;;
51292;SDS011;37377;45.186;9.778;2024-02-26T19:51:00;1.5;;;1.2;;
51292;SDS011;37377;45.186;9.778;2024-02-26T19:52:00;2.9;;;1.2;;
51292;SDS011;37377;45.186;9.778;2024-02-26T19:53:00;2.9;;;1.2;;
51292;SDS011;37377;45.186;9.778;2024-02-26T19:54:01;1.5;;;1.1;;
51292;SDS011;37377;45.186;9.778;2024-02-26T19:55:00;1.5;;;1.1;;
51292;SDS011;37377;45.186;9.778;2024-02-26T19:56:03;1.5;;;1.1;;
51292;SDS011;37377;45.186;9.778;2024-02-26T19:57:00;1.5;;;1.1;;
51292;SDS011;37377;45.186;9.778;2024-02-26T19:58:03;1.3;;;1.0;;
51292;SDS011;37377;45.186;9.778;2024-02-26T20:00:01;unavailable;;;unavailable;;
51292;SDS011;37377;45.186;9.778;2024-02-26T20:01:01;1.2;;;1.0;;
51292;SDS011;37377;45.186;9.778;2024-02-26T20:02:00;1.2;;;1.0;;
51292;SDS011;37377;45.186;9.778;2024-02-26T20:03:00;2.7;;;1.0;;
51292;SDS011;37377;45.186;9.778;2024-02-26T20:04:00;2.7;;;1.0;;
51292;SDS011;37377;45.186;9.778;2024-02-26T20:06:00;1.4;;;1.1;;
51292;SDS011;37377;45.186;9.778;2024-02-26T20:07:00;1.4;;;1.1;;
51292;SDS011;37377;45.186;9.778;2024-02-26T20:08:00;1.4;;;1.1;;
51292;SDS011;37377;45.186;9.778;2024-02-26T20:12:01;1.2;;;1.1;;
51292;SDS011;37377;45.186;9.778;2024-02-26T20:13:01;1.2;;;1.1;;
51292;SDS011;37377;45.186;9.778;2024-02-26T20:19:00;1.3;;;1.0;;
51292;SDS011;37377;45.186;9.778;2024-02-26T20:20:00;1.3;;;1.0;;
51292;SDS011;37377;45.186;9.778;2024-02-26T20:21:00;1.3;;;1.0;;
51292;SDS011;37377;45.186;9.778;2024-02-26T20:22:03;1.5;;;1.1;;
51292;SDS011;37377;45.186;9.778;2024-02-26T20:23:00;1.5;;;1.1;;
51292;SDS011;37377;45.186;9.778;2024-02-26T20:24:00;1.5;;;1.1;;
51292;SDS011;37377;45.186;9.778;2024-02-26T20:25:00;1.1;;;1.0;;
51292;SDS011;37377;45.186;9.778;2024-02-26T20:26:01;1.1;;;1.0;;
51292;SDS011;37377;45.186;9.778;2024-02-26T20:27:00;1.1;;;1.0;;
51292;SDS011;37377;45.186;9.778;2024-02-26T20:29:00;1.7;;;1.1;;
51292;SDS011;37377;45.186;9.778;2024-02-26T20:30:01;3.0;;;2.3;;
51292;SDS011;37377;45.186;9.778;2024-02-26T20:31:00;3.0;;;2.3;;
51292;SDS011;37377;45.186;9.778;2024-02-26T20:32:00;3.0;;;2.3;;
51292;SDS011;37377;45.186;9.778;2024-02-26T20:34:01;4.5;;;3.1;;
51292;SDS011;37377;45.186;9.778;2024-02-26T20:35:00;4.5;;;3.1;;
51292;SDS011;37377;45.186;9.778;2024-02-26T20:36:00;4.9;;;4.5;;
51292;SDS011;37377;45.186;9.778;2024-02-26T20:37:01;4.9;;;4.5;;
51292;SDS011;37377;45.186;9.778;2024-02-26T20:38:00;4.9;;;4.5;;
51292;SDS011;37377;45.186;9.778;2024-02-26T20:39:02;5.6;;;5.1;;
51292;SDS011;37377;45.186;9.778;2024-02-26T20:40:00;5.6;;;5.1;;
51292;SDS011;37377;45.186;9.778;2024-02-26T20:41:00;5.6;;;5.1;;